Time;durP1;ratioP1;P1;durP2;ratioP2;P2;SDS_P1;SDS_P2;PMS_P1;PMS_P2;Temp;Humidity;BMP_temperature;BMP_pressure;BME280_temperature;BME280_humidity;BME280_pressure;Samples;Min_cycle;Max_cycle;Signal;HPM_P1;HPM_P2
2021/09/13 00:00:04;;;;;;;7.33;5.92;;;;;;;;;;1882291;76;21495;-49
2021/09/13 00:02:35;;;;;;;9.70;6.22;;;;;;;;;;1881530;75;21554;-47
2021/09/13 00:05:04;;;;;;;12.47;6.75;;;;;;;;;;1882279;75;21114;-47
2021/09/13 00:07:34;;;;;;;9.50;5.90;;;;;;;;;;1882264;76;21088;-47
2021/09/13 00:10:03;;;;;;;8.23;5.62;;;;;;;;;;1882179;76;21094;-47
2021/09/13 00:12:32;;;;;;;7.45;5.80;;;;;;;;;;1882224;76;21099;-51
2021/09/13 00:15:01;;;;;;;6.28;5.67;;;;;;;;;;1882167;76;21122;-48
2021/09/13 00:17:31;;;;;;;11.33;6.15;;;;;;;;;;1881699;75;21157;-49
2021/09/13 00:20:00;;;;;;;7.97;5.92;;;;;;;;;;1882240;75;21098;-49
2021/09/13 00:22:29;;;;;;;7.25;5.95;;;;;;;;;;1882085;75;21098;-49
2021/09/13 00:24:58;;;;;;;6.33;4.97;;;;;;;;;;1882147;75;21114;-47
2021/09/13 00:27:28;;;;;;;5.92;5.15;;;;;;;;;;1882198;75;21059;-49
2021/09/13 00:29:58;;;;;;;10.68;5.87;;;;;;;;;;1882117;75;21102;-48
2021/09/13 00:32:27;;;;;;;7.10;5.17;;;;;;;;;;1882270;75;21122;-46
2021/09/13 00:34:58;;;;;;;6.25;5.65;;;;;;;;;;1881880;76;21059;-50
2021/09/13 00:37:27;;;;;;;7.08;5.20;;;;;;;;;;1882166;76;21008;-50
2021/09/13 00:39:56;;;;;;;6.00;5.12;;;;;;;;;;1882160;76;21118;-49
2021/09/13 00:42:25;;;;;;;8.10;5.50;;;;;;;;;;1882112;75;21118;-49
2021/09/13 00:44:55;;;;;;;5.42;4.92;;;;;;;;;;1882220;76;21048;-49
2021/09/13 00:47:24;;;;;;;6.97;5.33;;;;;;;;;;1882194;75;21044;-49
2021/09/13 00:49:52;;;;;;;6.45;4.92;;;;;;;;;;1882203;76;21044;-49
2021/09/13 00:52:21;;;;;;;8.05;4.70;;;;;;;;;;1882211;75;21044;-50
2021/09/13 00:54:51;;;;;;;8.43;4.80;;;;;;;;;;1882239;75;21040;-49
2021/09/13 00:57:19;;;;;;;7.35;4.90;;;;;;;;;;1882088;76;21083;-47
2021/09/13 00:59:48;;;;;;;8.75;4.95;;;;;;;;;;1882250;75;21012;-47
2021/09/13 01:02:17;;;;;;;5.50;5.00;;;;;;;;;;1882193;75;21059;-48
2021/09/13 01:04:46;;;;;;;7.55;4.87;;;;;;;;;;1882236;76;21075;-49
2021/09/13 01:07:15;;;;;;;7.72;4.87;;;;;;;;;;1882189;75;21153;-50
2021/09/13 01:09:45;;;;;;;6.10;5.05;;;;;;;;;;1882263;75;21012;-50
2021/09/13 01:12:14;;;;;;;7.90;5.55;;;;;;;;;;1882261;76;21052;-49
2021/09/13 01:14:42;;;;;;;8.13;5.78;;;;;;;;;;1882269;75;21110;-48
2021/09/13 01:17:11;;;;;;;5.45;4.90;;;;;;;;;;1882237;75;21028;-51
2021/09/13 01:19:40;;;;;;;8.88;6.05;;;;;;;;;;1882340;76;21028;-50
2021/09/13 01:22:11;;;;;;;10.63;5.80;;;;;;;;;;1882386;76;21044;-49
2021/09/13 01:24:41;;;;;;;9.15;5.85;;;;;;;;;;1881159;75;21158;-50
2021/09/13 01:27:10;;;;;;;8.28;5.15;;;;;;;;;;1882325;76;21149;-47
2021/09/13 01:29:39;;;;;;;8.18;5.35;;;;;;;;;;1882325;75;21087;-49
2021/09/13 01:32:09;;;;;;;11.40;5.33;;;;;;;;;;1882309;76;21051;-48
2021/09/13 01:34:51;;;;;;;6.10;4.58;;;;;;;;;;1881693;76;21080;-49
2021/09/13 01:37:21;;;;;;;8.08;5.35;;;;;;;;;;1882385;75;21036;-49
2021/09/13 01:39:51;;;;;;;7.90;5.17;;;;;;;;;;1882415;76;21051;-50
2021/09/13 01:42:20;;;;;;;5.78;5.00;;;;;;;;;;1882351;75;21120;-50
2021/09/13 01:44:49;;;;;;;11.83;4.83;;;;;;;;;;1882343;75;21063;-49
2021/09/13 01:47:18;;;;;;;7.83;5.65;;;;;;;;;;1882307;76;21110;-47
2021/09/13 01:49:49;;;;;;;8.33;5.03;;;;;;;;;;1848202;76;21094;-49
2021/09/13 01:52:17;;;;;;;9.10;5.33;;;;;;;;;;1882489;76;21036;-50
2021/09/13 01:54:47;;;;;;;9.35;6.60;;;;;;;;;;1882385;76;21118;-50
2021/09/13 01:57:16;;;;;;;8.00;5.65;;;;;;;;;;1882325;75;21052;-49
2021/09/13 01:59:45;;;;;;;7.30;5.28;;;;;;;;;;1882352;76;21117;-49
2021/09/13 02:02:14;;;;;;;11.03;5.42;;;;;;;;;;1882347;75;21052;-50
2021/09/13 02:04:43;;;;;;;6.65;5.72;;;;;;;;;;1882291;75;21072;-50
2021/09/13 02:07:13;;;;;;;8.25;5.35;;;;;;;;;;1882315;76;21040;-50
2021/09/13 02:09:44;;;;;;;6.33;5.15;;;;;;;;;;1882406;75;21131;-49
2021/09/13 02:12:15;;;;;;;9.25;5.72;;;;;;;;;;1881694;76;21096;-50
2021/09/13 02:14:43;;;;;;;9.45;5.35;;;;;;;;;;1882460;75;21036;-49
2021/09/13 02:17:13;;;;;;;8.28;6.05;;;;;;;;;;1882484;75;21024;-50
2021/09/13 02:19:43;;;;;;;5.97;5.08;;;;;;;;;;1882331;75;21057;-51
2021/09/13 02:22:12;;;;;;;7.45;5.10;;;;;;;;;;1882277;75;21048;-49
2021/09/13 02:24:41;;;;;;;6.95;5.40;;;;;;;;;;1882438;76;21101;-50
2021/09/13 02:27:11;;;;;;;8.75;5.42;;;;;;;;;;1882436;76;21056;-49
2021/09/13 02:29:39;;;;;;;8.10;5.65;;;;;;;;;;1882443;75;21169;-49
2021/09/13 02:32:08;;;;;;;6.12;5.53;;;;;;;;;;1882414;76;21048;-49
2021/09/13 02:34:37;;;;;;;10.03;6.58;;;;;;;;;;1882364;75;21044;-49
2021/09/13 02:37:06;;;;;;;6.83;5.53;;;;;;;;;;1882223;75;21012;-49
2021/09/13 02:39:35;;;;;;;12.23;5.72;;;;;;;;;;1882226;76;21048;-49
2021/09/13 02:42:06;;;;;;;6.65;6.03;;;;;;;;;;1882258;75;21044;-49
2021/09/13 02:44:35;;;;;;;7.90;5.25;;;;;;;;;;1882213;75;21098;-50
2021/09/13 02:47:04;;;;;;;10.53;6.33;;;;;;;;;;1882292;75;21110;-50
2021/09/13 02:49:33;;;;;;;7.62;5.35;;;;;;;;;;1882126;76;21118;-50
2021/09/13 02:52:03;;;;;;;8.38;5.12;;;;;;;;;;1882163;75;21119;-50
2021/09/13 02:54:31;;;;;;;6.10;5.00;;;;;;;;;;1882211;76;21036;-50
2021/09/13 02:57:00;;;;;;;12.63;5.42;;;;;;;;;;1882369;76;21095;-50
2021/09/13 02:59:29;;;;;;;7.15;5.92;;;;;;;;;;1882272;75;21036;-48
2021/09/13 03:01:58;;;;;;;9.48;5.37;;;;;;;;;;1882253;76;21123;-49
2021/09/13 03:04:28;;;;;;;14.28;6.50;;;;;;;;;;1882170;75;21063;-49
2021/09/13 03:06:56;;;;;;;10.78;6.33;;;;;;;;;;1882210;75;21036;-50
2021/09/13 03:09:25;;;;;;;10.45;5.92;;;;;;;;;;1882165;76;21028;-48
2021/09/13 03:11:54;;;;;;;8.45;6.08;;;;;;;;;;1882229;76;21036;-49
2021/09/13 03:14:23;;;;;;;8.30;5.97;;;;;;;;;;1882161;75;21055;-50
2021/09/13 03:16:54;;;;;;;13.65;7.37;;;;;;;;;;1882302;76;21111;-49
2021/09/13 03:19:23;;;;;;;6.05;5.45;;;;;;;;;;1882288;76;21505;-50
2021/09/13 03:21:51;;;;;;;14.15;7.10;;;;;;;;;;1882191;76;21110;-50
2021/09/13 03:24:20;;;;;;;10.13;6.30;;;;;;;;;;1882362;76;21430;-50
2021/09/13 03:26:49;;;;;;;9.80;6.62;;;;;;;;;;1882228;75;21056;-49
2021/09/13 03:29:19;;;;;;;11.03;7.17;;;;;;;;;;1882303;75;21047;-48
2021/09/13 03:31:47;;;;;;;9.60;6.85;;;;;;;;;;1882045;75;21090;-50
2021/09/13 03:34:17;;;;;;;11.83;7.33;;;;;;;;;;1882257;75;21094;-50
2021/09/13 03:36:46;;;;;;;13.43;8.38;;;;;;;;;;1882295;75;21044;-50
2021/09/13 03:39:15;;;;;;;10.10;7.53;;;;;;;;;;1882299;75;21008;-49
2021/09/13 03:41:43;;;;;;;10.58;8.25;;;;;;;;;;1882210;75;21025;-50
2021/09/13 03:44:12;;;;;;;11.28;7.67;;;;;;;;;;1882276;75;21044;-49
2021/09/13 03:46:41;;;;;;;12.10;7.40;;;;;;;;;;1882221;75;21172;-50
2021/09/13 03:49:14;;;;;;;9.85;7.97;;;;;;;;;;1879263;76;21158;-49
2021/09/13 03:51:45;;;;;;;22.98;9.23;;;;;;;;;;1882110;76;21056;-50
2021/09/13 03:54:14;;;;;;;23.67;11.97;;;;;;;;;;1882160;75;21060;-49
2021/09/13 03:56:44;;;;;;;21.00;11.43;;;;;;;;;;1881995;75;21092;-48
2021/09/13 03:59:14;;;;;;;17.85;9.95;;;;;;;;;;1881961;75;21092;-48
2021/09/13 04:01:43;;;;;;;21.40;11.28;;;;;;;;;;1882211;75;21052;-50
2021/09/13 04:04:15;;;;;;;25.40;14.60;;;;;;;;;;1880725;75;21061;-49
2021/09/13 04:06:51;;;;;;;41.75;24.95;;;;;;;;;;1872819;77;21602;-50
2021/09/13 04:12:13;;;;;;;22.62;16.62;;;;;;;;;;1842282;77;21048;-48
2021/09/13 04:14:53;;;;;;;26.05;12.30;;;;;;;;;;1856498;77;21103;-51
2021/09/13 04:17:23;;;;;;;14.20;10.23;;;;;;;;;;1842700;76;21146;-49
2021/09/13 04:20:12;;;;;;;12.70;9.08;;;;;;;;;;1825469;78;21075;-49
2021/09/13 04:22:43;;;;;;;16.00;8.38;;;;;;;;;;1825350;78;21143;-49
2021/09/13 04:25:15;;;;;;;12.95;8.43;;;;;;;;;;1844435;76;21060;-46
2021/09/13 04:27:49;;;;;;;18.00;10.50;;;;;;;;;;1870596;76;21080;-47
2021/09/13 04:30:37;;;;;;;16.23;11.50;;;;;;;;;;1871559;75;21092;-46
2021/09/13 04:33:24;;;;;;;15.83;8.33;;;;;;;;;;1872635;77;21503;-47
2021/09/13 04:36:10;;;;;;;12.33;7.15;;;;;;;;;;1804493;78;21078;-46
2021/09/13 04:38:40;;;;;;;19.45;7.95;;;;;;;;;;1846534;76;21091;-47
2021/09/13 04:41:17;;;;;;;14.90;7.10;;;;;;;;;;1837921;77;21584;-47
2021/09/13 04:43:47;;;;;;;9.75;7.10;;;;;;;;;;1852183;76;21016;-47
2021/09/13 04:46:17;;;;;;;14.83;7.65;;;;;;;;;;1871700;76;21183;-47
2021/09/13 04:48:54;;;;;;;12.75;7.33;;;;;;;;;;1871032;76;21060;-47
2021/09/13 04:51:43;;;;;;;11.80;7.92;;;;;;;;;;1870785;77;21021;-47
2021/09/13 04:54:13;;;;;;;14.58;7.58;;;;;;;;;;1871984;76;21077;-46
2021/09/13 04:56:42;;;;;;;13.70;7.97;;;;;;;;;;1872885;75;21147;-49
2021/09/13 04:59:11;;;;;;;16.73;8.88;;;;;;;;;;1872874;76;21106;-49
2021/09/13 05:01:40;;;;;;;15.13;9.08;;;;;;;;;;1872858;77;21088;-47
2021/09/13 05:04:09;;;;;;;12.93;9.78;;;;;;;;;;1872895;77;21106;-46
2021/09/13 05:06:39;;;;;;;18.00;9.00;;;;;;;;;;1882169;75;21146;-48
2021/09/13 05:09:08;;;;;;;13.22;8.95;;;;;;;;;;1882208;75;21040;-50
2021/09/13 05:11:38;;;;;;;13.38;8.03;;;;;;;;;;1882333;76;21102;-46
2021/09/13 05:14:07;;;;;;;12.43;7.97;;;;;;;;;;1882321;75;21107;-47
2021/09/13 05:16:37;;;;;;;13.18;8.83;;;;;;;;;;1882313;75;21024;-49
2021/09/13 05:19:07;;;;;;;12.23;8.90;;;;;;;;;;1882161;75;21619;-48
2021/09/13 05:21:40;;;;;;;11.48;7.55;;;;;;;;;;1882159;75;21109;-48
2021/09/13 05:24:10;;;;;;;19.20;8.68;;;;;;;;;;1882310;75;21150;-48
2021/09/13 05:26:40;;;;;;;12.88;7.40;;;;;;;;;;1882405;75;21122;-47
2021/09/13 05:29:09;;;;;;;13.93;7.72;;;;;;;;;;1882254;76;21046;-48
2021/09/13 05:31:39;;;;;;;10.32;7.25;;;;;;;;;;1882154;76;21110;-47
2021/09/13 05:34:09;;;;;;;12.70;7.60;;;;;;;;;;1881847;75;21084;-48
2021/09/13 05:36:38;;;;;;;7.78;5.83;;;;;;;;;;1882365;76;21169;-46
2021/09/13 05:39:08;;;;;;;8.08;6.50;;;;;;;;;;1882362;75;21044;-46
2021/09/13 05:41:48;;;;;;;9.90;6.62;;;;;;;;;;1881754;75;21080;-49
2021/09/13 05:44:18;;;;;;;9.05;7.08;;;;;;;;;;1882243;75;21047;-46
2021/09/13 05:46:47;;;;;;;9.58;7.70;;;;;;;;;;1882237;75;21102;-47
2021/09/13 05:49:16;;;;;;;10.85;9.28;;;;;;;;;;1882329;75;21028;-49
2021/09/13 05:51:50;;;;;;;11.60;7.42;;;;;;;;;;1882257;75;21130;-46
2021/09/13 05:54:22;;;;;;;13.65;8.20;;;;;;;;;;1882361;75;21024;-47
2021/09/13 05:56:50;;;;;;;16.97;8.30;;;;;;;;;;1881833;76;21548;-50
2021/09/13 05:59:20;;;;;;;13.68;7.55;;;;;;;;;;1881842;76;21067;-48
2021/09/13 06:01:49;;;;;;;12.88;7.95;;;;;;;;;;1882313;76;21044;-49
2021/09/13 06:04:19;;;;;;;16.32;8.08;;;;;;;;;;1882282;76;21051;-48
2021/09/13 06:06:47;;;;;;;14.83;8.98;;;;;;;;;;1882216;75;21130;-48
2021/09/13 06:09:17;;;;;;;14.43;9.00;;;;;;;;;;1882187;75;21044;-49
2021/09/13 06:11:46;;;;;;;14.78;9.33;;;;;;;;;;1882129;75;21024;-50
2021/09/13 06:14:16;;;;;;;17.17;12.18;;;;;;;;;;1882307;76;21106;-49
2021/09/13 06:16:45;;;;;;;12.10;9.68;;;;;;;;;;1882174;76;21036;-46
2021/09/13 06:19:14;;;;;;;13.00;9.60;;;;;;;;;;1882138;76;21024;-46
2021/09/13 06:21:43;;;;;;;16.70;10.48;;;;;;;;;;1882109;75;21020;-50
2021/09/13 06:24:13;;;;;;;10.93;8.85;;;;;;;;;;1882116;75;21131;-49
2021/09/13 06:26:43;;;;;;;10.70;8.20;;;;;;;;;;1881692;75;21084;-48
2021/09/13 06:29:12;;;;;;;12.30;8.43;;;;;;;;;;1882122;75;21056;-47
2021/09/13 06:31:41;;;;;;;11.45;8.55;;;;;;;;;;1882110;75;21075;-47
2021/09/13 06:34:15;;;;;;;10.53;8.53;;;;;;;;;;1882096;75;21052;-46
2021/09/13 06:36:40;;;;;;;11.28;8.68;;;;;;;;;;1881394;75;21605;-49
2021/09/13 06:39:09;;;;;;;11.40;9.20;;;;;;;;;;1847904;76;21109;-47
2021/09/13 06:41:38;;;;;;;16.67;9.15;;;;;;;;;;1882140;75;21052;-46
2021/09/13 06:44:07;;;;;;;13.08;8.63;;;;;;;;;;1882169;76;21063;-48
2021/09/13 06:49:10;;;;;;;12.53;8.65;;;;;;;;;;1882300;75;21536;-46
2021/09/13 06:51:38;;;;;;;12.90;8.73;;;;;;;;;;1882217;76;21040;-46
2021/09/13 06:54:07;;;;;;;11.08;8.98;;;;;;;;;;1882178;75;21040;-47
2021/09/13 06:56:36;;;;;;;13.70;9.63;;;;;;;;;;1882190;75;21056;-47
2021/09/13 06:59:05;;;;;;;18.17;9.90;;;;;;;;;;1882333;75;21040;-50
2021/09/13 07:01:33;;;;;;;9.98;8.93;;;;;;;;;;1882124;75;21044;-49
2021/09/13 07:04:02;;;;;;;14.13;10.20;;;;;;;;;;1882175;75;21032;-49
2021/09/13 07:06:31;;;;;;;15.20;12.00;;;;;;;;;;1882127;75;21098;-46
2021/09/13 07:09:00;;;;;;;10.78;8.65;;;;;;;;;;1882181;76;21102;-48
2021/09/13 07:11:28;;;;;;;12.63;8.43;;;;;;;;;;1882287;75;21086;-47
2021/09/13 07:13:58;;;;;;;15.78;8.93;;;;;;;;;;1882123;75;21099;-47
2021/09/13 07:16:29;;;;;;;11.38;9.00;;;;;;;;;;1882050;75;21111;-49
2021/09/13 07:18:58;;;;;;;12.15;9.03;;;;;;;;;;1881954;75;21055;-46
2021/09/13 07:21:27;;;;;;;15.43;8.75;;;;;;;;;;1881444;75;21122;-48
2021/09/13 07:23:56;;;;;;;10.55;8.00;;;;;;;;;;1880505;75;21080;-47
2021/09/13 07:26:27;;;;;;;11.53;8.68;;;;;;;;;;1880433;75;21075;-45
2021/09/13 07:28:56;;;;;;;18.50;8.38;;;;;;;;;;1881075;75;21176;-48
2021/09/13 07:31:24;;;;;;;14.63;9.75;;;;;;;;;;1881136;75;21118;-45
2021/09/13 07:33:58;;;;;;;21.07;11.10;;;;;;;;;;1880600;75;21060;-47
2021/09/13 07:36:36;;;;;;;12.00;9.33;;;;;;;;;;1881581;75;21137;-46
2021/09/13 07:39:12;;;;;;;9.40;7.33;;;;;;;;;;1905059;75;22447;-45
2021/09/13 07:41:50;;;;;;;12.55;9.15;;;;;;;;;;1912055;75;21555;-47
2021/09/13 07:44:30;;;;;;;10.00;7.45;;;;;;;;;;1911320;75;21054;-46
2021/09/13 07:47:10;;;;;;;13.43;7.45;;;;;;;;;;1910664;75;21143;-47
2021/09/13 07:49:44;;;;;;;11.12;6.65;;;;;;;;;;1911258;75;21037;-45
2021/09/13 07:52:15;;;;;;;11.95;8.53;;;;;;;;;;1912584;75;21315;-49
2021/09/13 07:54:44;;;;;;;14.53;8.30;;;;;;;;;;1912374;75;21096;-47
2021/09/13 07:57:13;;;;;;;12.13;7.42;;;;;;;;;;1912246;75;21027;-45
2021/09/13 07:59:41;;;;;;;12.05;6.75;;;;;;;;;;1912216;75;21168;-48
2021/09/13 08:02:12;;;;;;;12.33;6.92;;;;;;;;;;1912394;75;21022;-46
2021/09/13 08:04:42;;;;;;;7.45;6.53;;;;;;;;;;1912293;75;22151;-47
2021/09/13 08:07:11;;;;;;;8.43;6.70;;;;;;;;;;1901641;75;21185;-46
2021/09/13 08:09:40;;;;;;;9.20;6.30;;;;;;;;;;1897226;75;21096;-44
2021/09/13 08:12:09;;;;;;;8.13;6.10;;;;;;;;;;1897473;75;21028;-48
2021/09/13 08:14:39;;;;;;;6.62;5.85;;;;;;;;;;1897344;75;21239;-48
2021/09/13 08:17:07;;;;;;;6.75;4.80;;;;;;;;;;1897245;75;21035;-45
2021/09/13 08:19:40;;;;;;;12.15;6.92;;;;;;;;;;1897573;75;21075;-47
2021/09/13 08:22:08;;;;;;;6.03;4.92;;;;;;;;;;1897254;75;21027;-44
2021/09/13 08:24:38;;;;;;;9.40;4.97;;;;;;;;;;1896508;75;21106;-48
2021/09/13 08:27:08;;;;;;;8.75;7.00;;;;;;;;;;1895812;75;21076;-49
2021/09/13 08:29:37;;;;;;;7.97;4.90;;;;;;;;;;1897505;75;21149;-45
2021/09/13 08:32:06;;;;;;;6.60;5.37;;;;;;;;;;1897575;75;21087;-45
2021/09/13 08:34:36;;;;;;;11.60;5.97;;;;;;;;;;1897462;75;21114;-45
2021/09/13 08:37:04;;;;;;;12.58;9.75;;;;;;;;;;1897387;75;21039;-46
2021/09/13 08:39:33;;;;;;;11.10;9.03;;;;;;;;;;1897672;75;21086;-48
2021/09/13 08:42:02;;;;;;;8.93;5.28;;;;;;;;;;1897571;75;21083;-46
2021/09/13 08:44:33;;;;;;;9.43;4.87;;;;;;;;;;1897421;75;21098;-47
2021/09/13 08:47:06;;;;;;;6.42;5.10;;;;;;;;;;1897636;75;21039;-47
2021/09/13 08:52:04;;;;;;;8.20;5.35;;;;;;;;;;1878338;75;21503;-49
2021/09/13 08:54:35;;;;;;;4.95;3.98;;;;;;;;;;1899473;75;21002;-46
2021/09/13 08:57:05;;;;;;;8.13;5.15;;;;;;;;;;1899521;75;21555;-46
2021/09/13 08:59:34;;;;;;;5.80;4.80;;;;;;;;;;1899433;74;21123;-49
2021/09/13 09:02:03;;;;;;;4.80;4.35;;;;;;;;;;1899613;75;21095;-46
2021/09/13 09:04:33;;;;;;;6.67;4.75;;;;;;;;;;1899407;75;21053;-45
2021/09/13 09:07:09;;;;;;;6.67;4.45;;;;;;;;;;1895983;75;21120;-46
2021/09/13 09:09:37;;;;;;;7.42;5.28;;;;;;;;;;1855261;77;21094;-47
2021/09/13 09:12:13;;;;;;;6.37;4.65;;;;;;;;;;1845728;78;21109;-49
2021/09/13 09:14:45;;;;;;;6.53;4.72;;;;;;;;;;1843954;78;21088;-49
2021/09/13 09:17:21;;;;;;;5.20;4.70;;;;;;;;;;1845479;78;21497;-47
2021/09/13 09:19:51;;;;;;;9.38;5.25;;;;;;;;;;1845825;78;21058;-47
2021/09/13 09:22:21;;;;;;;5.30;4.80;;;;;;;;;;1855379;77;21085;-47
2021/09/13 09:24:50;;;;;;;9.58;5.78;;;;;;;;;;1858820;77;21096;-50
2021/09/13 09:27:18;;;;;;;10.43;5.15;;;;;;;;;;1858700;77;21037;-47
2021/09/13 09:29:47;;;;;;;10.68;5.12;;;;;;;;;;1858644;77;21088;-45
2021/09/13 09:32:20;;;;;;;6.62;4.17;;;;;;;;;;1858872;77;21121;-47
2021/09/13 09:34:48;;;;;;;3.52;3.17;;;;;;;;;;1855965;76;21084;-45
2021/09/13 09:37:19;;;;;;;6.70;4.10;;;;;;;;;;1855342;77;21097;-45
2021/09/13 09:39:55;;;;;;;6.17;4.62;;;;;;;;;;1855298;77;21046;-49
2021/09/13 09:42:31;;;;;;;5.35;3.83;;;;;;;;;;1855537;77;21121;-47
2021/09/13 09:45:01;;;;;;;6.58;4.42;;;;;;;;;;1855282;77;21073;-49
2021/09/13 09:47:30;;;;;;;5.03;3.45;;;;;;;;;;1855332;77;21603;-47
2021/09/13 09:49:59;;;;;;;5.53;4.33;;;;;;;;;;1855372;77;21097;-46
2021/09/13 09:52:29;;;;;;;6.10;4.20;;;;;;;;;;1864764;76;21002;-50
2021/09/13 09:55:08;;;;;;;5.65;4.00;;;;;;;;;;1875728;76;21073;-45
2021/09/13 09:57:37;;;;;;;10.38;5.37;;;;;;;;;;1876024;76;21030;-44
2021/09/13 10:00:19;;;;;;;7.37;4.40;;;;;;;;;;1858722;76;21048;-46
2021/09/13 10:02:48;;;;;;;5.75;4.00;;;;;;;;;;1857257;76;21008;-45
2021/09/13 10:05:16;;;;;;;6.65;4.55;;;;;;;;;;1855680;76;21071;-46
2021/09/13 10:07:46;;;;;;;8.08;4.70;;;;;;;;;;1848456;76;21143;-49
2021/09/13 10:10:15;;;;;;;12.88;4.55;;;;;;;;;;1840842;77;21128;-48
2021/09/13 10:12:44;;;;;;;5.80;3.80;;;;;;;;;;1840937;77;21106;-45
2021/09/13 10:15:13;;;;;;;4.83;3.80;;;;;;;;;;1840606;77;21344;-47
2021/09/13 10:17:42;;;;;;;6.90;4.72;;;;;;;;;;1840990;77;21037;-48
2021/09/13 10:20:11;;;;;;;8.43;4.58;;;;;;;;;;1840936;77;21087;-48
2021/09/13 10:22:41;;;;;;;7.80;4.45;;;;;;;;;;1840770;78;21052;-47
2021/09/13 10:25:10;;;;;;;6.03;4.05;;;;;;;;;;1839323;77;21111;-48
2021/09/13 10:27:39;;;;;;;11.35;4.80;;;;;;;;;;1840914;77;21095;-46
2021/09/13 10:30:12;;;;;;;7.80;4.65;;;;;;;;;;1840847;78;21101;-49
2021/09/13 10:32:42;;;;;;;7.45;4.70;;;;;;;;;;1841037;76;22129;-45
2021/09/13 10:35:11;;;;;;;5.40;3.80;;;;;;;;;;1840675;77;21154;-47
2021/09/13 10:37:48;;;;;;;9.18;4.20;;;;;;;;;;1839577;76;21141;-44
2021/09/13 10:40:18;;;;;;;5.37;4.15;;;;;;;;;;1839573;78;21142;-45
2021/09/13 10:42:48;;;;;;;8.40;3.80;;;;;;;;;;1839752;78;21150;-47
2021/09/13 10:45:17;;;;;;;7.50;3.98;;;;;;;;;;1840085;77;21059;-45
2021/09/13 10:47:47;;;;;;;11.55;4.30;;;;;;;;;;1840183;77;21394;-47
2021/09/13 10:50:17;;;;;;;10.15;4.67;;;;;;;;;;1840214;77;21164;-45
2021/09/13 10:52:47;;;;;;;9.00;4.42;;;;;;;;;;1840538;77;21159;-48
2021/09/13 10:55:20;;;;;;;5.85;4.28;;;;;;;;;;1840176;77;21254;-46
2021/09/13 10:57:53;;;;;;;6.85;4.37;;;;;;;;;;1840116;78;21110;-47
2021/09/13 11:00:39;;;;;;;4.20;3.80;;;;;;;;;;1840377;78;21109;-48
2021/09/13 11:03:34;;;;;;;7.08;4.95;;;;;;;;;;1839151;76;21099;-48
2021/09/13 11:08:45;;;;;;;25.62;8.18;;;;;;;;;;1839107;77;21092;-44
2021/09/13 11:11:22;;;;;;;9.45;5.20;;;;;;;;;;1836344;76;21335;-46
2021/09/13 11:14:04;;;;;;;5.90;4.90;;;;;;;;;;1821360;78;21167;-46
2021/09/13 11:16:34;;;;;;;4.80;3.95;;;;;;;;;;1844516;77;21059;-49
2021/09/13 11:19:09;;;;;;;5.22;4.45;;;;;;;;;;1877897;75;22123;-44
2021/09/13 11:21:35;;;;;;;7.85;5.22;;;;;;;;;;1871620;75;21031;-46
2021/09/13 11:24:05;;;;;;;6.47;4.60;;;;;;;;;;1871865;77;21047;-50
2021/09/13 11:26:42;;;;;;;7.20;4.67;;;;;;;;;;1871601;76;21062;-47
2021/09/13 11:29:18;;;;;;;8.65;4.83;;;;;;;;;;1871075;77;21133;-46
2021/09/13 11:31:50;;;;;;;8.85;4.58;;;;;;;;;;1872031;77;21019;-49
2021/09/13 11:34:20;;;;;;;6.80;4.80;;;;;;;;;;1872555;77;21540;-47
2021/09/13 11:37:03;;;;;;;10.30;5.00;;;;;;;;;;1872952;77;21117;-49
2021/09/13 11:39:44;;;;;;;9.20;5.20;;;;;;;;;;1872844;76;21067;-46
2021/09/13 11:42:24;;;;;;;8.83;5.28;;;;;;;;;;1872677;76;21141;-47
2021/09/13 11:44:54;;;;;;;7.72;5.42;;;;;;;;;;1872910;77;21571;-45
2021/09/13 11:47:27;;;;;;;8.35;5.10;;;;;;;;;;1872811;77;21136;-47
2021/09/13 11:49:56;;;;;;;;;;;;;;;;;;1875505;76;21055;-46
2021/09/13 11:52:29;;;;;;;10.30;7.25;;;;;;;;;;1872750;75;20369;-46
2021/09/13 11:55:09;;;;;;;14.47;6.97;;;;;;;;;;1872757;77;21531;-47
2021/09/13 11:57:41;;;;;;;12.88;6.35;;;;;;;;;;1872318;77;21039;-49
2021/09/13 12:00:11;;;;;;;14.35;6.50;;;;;;;;;;1872780;77;21051;-47
2021/09/13 12:02:40;;;;;;;8.53;5.08;;;;;;;;;;1872780;77;21106;-46
2021/09/13 12:05:22;;;;;;;10.40;6.03;;;;;;;;;;1872684;77;21039;-49
2021/09/13 12:07:52;;;;;;;8.35;5.12;;;;;;;;;;1875154;75;21027;-49
2021/09/13 12:10:22;;;;;;;8.40;5.03;;;;;;;;;;1892030;76;21022;-49
2021/09/13 12:12:55;;;;;;;12.73;5.90;;;;;;;;;;1891107;75;21149;-47
2021/09/13 12:15:28;;;;;;;8.33;5.67;;;;;;;;;;1891877;76;21522;-49
2021/09/13 12:17:56;;;;;;;9.30;5.15;;;;;;;;;;1891839;75;21026;-49
2021/09/13 12:20:26;;;;;;;7.50;4.42;;;;;;;;;;1891853;76;21088;-49
2021/09/13 12:23:02;;;;;;;12.13;6.08;;;;;;;;;;1891632;75;20998;-48
2021/09/13 12:25:32;;;;;;;11.75;6.42;;;;;;;;;;1891792;76;21093;-46
2021/09/13 12:28:02;;;;;;;6.67;5.45;;;;;;;;;;1891352;75;21026;-50
2021/09/13 12:30:32;;;;;;;9.88;5.35;;;;;;;;;;1890671;76;22283;-46
2021/09/13 12:33:02;;;;;;;6.42;5.00;;;;;;;;;;1889410;76;21195;-48
2021/09/13 12:35:32;;;;;;;7.40;4.70;;;;;;;;;;1891091;76;21461;-46
2021/09/13 12:38:01;;;;;;;8.23;5.47;;;;;;;;;;1888167;75;21080;-47
2021/09/13 12:40:30;;;;;;;7.12;4.85;;;;;;;;;;1891791;76;21084;-48
2021/09/13 12:43:03;;;;;;;6.50;4.08;;;;;;;;;;1891703;76;21018;-49
2021/09/13 12:45:33;;;;;;;5.97;4.60;;;;;;;;;;1891935;76;21645;-49
2021/09/13 12:48:03;;;;;;;5.22;4.58;;;;;;;;;;1891895;76;21472;-49
2021/09/13 12:50:36;;;;;;;10.08;5.17;;;;;;;;;;1891908;76;21465;-50
2021/09/13 12:53:09;;;;;;;6.10;4.50;;;;;;;;;;1891892;76;20994;-46
2021/09/13 12:55:40;;;;;;;7.58;4.20;;;;;;;;;;1891651;75;21542;-50
2021/09/13 12:58:25;;;;;;;7.30;4.22;;;;;;;;;;1891749;75;21492;-47
2021/09/13 13:00:52;;;;;;;;;;;;;;;;;;1894468;76;21104;-49
2021/09/13 13:03:21;;;;;;;5.58;4.17;;;;;;;;;;1891758;76;20345;-48
2021/09/13 13:05:53;;;;;;;5.67;4.75;;;;;;;;;;1891954;76;21014;-50
2021/09/13 13:08:22;;;;;;;10.63;5.03;;;;;;;;;;1891669;75;21485;-49
2021/09/13 13:10:51;;;;;;;9.13;5.12;;;;;;;;;;1891524;76;21105;-46
2021/09/13 13:13:21;;;;;;;16.12;4.50;;;;;;;;;;1891360;75;21135;-50
2021/09/13 13:15:50;;;;;;;11.10;5.12;;;;;;;;;;1891458;76;21002;-49
2021/09/13 13:18:20;;;;;;;8.28;4.05;;;;;;;;;;1891517;76;21046;-48
2021/09/13 13:20:49;;;;;;;8.65;5.30;;;;;;;;;;1891481;76;21002;-49
2021/09/13 13:23:18;;;;;;;7.10;4.00;;;;;;;;;;1891541;76;21038;-50
2021/09/13 13:25:47;;;;;;;8.00;3.98;;;;;;;;;;1891462;76;21107;-48
2021/09/13 13:28:18;;;;;;;7.40;4.00;;;;;;;;;;1891511;76;21098;-47
2021/09/13 13:30:46;;;;;;;3.95;3.55;;;;;;;;;;1891491;76;21788;-47
2021/09/13 13:33:15;;;;;;;9.15;4.30;;;;;;;;;;1891590;76;21166;-47
2021/09/13 13:35:44;;;;;;;6.40;4.17;;;;;;;;;;1891546;76;21207;-50
2021/09/13 13:38:13;;;;;;;8.05;4.42;;;;;;;;;;1891478;76;21124;-49
2021/09/13 13:40:42;;;;;;;11.90;4.70;;;;;;;;;;1891563;76;21046;-50
2021/09/13 13:43:11;;;;;;;9.28;4.80;;;;;;;;;;1891536;75;21042;-49
2021/09/13 13:45:39;;;;;;;13.13;5.03;;;;;;;;;;1891401;76;21027;-48
2021/09/13 13:48:08;;;;;;;6.90;4.78;;;;;;;;;;1891438;76;21018;-50
2021/09/13 13:50:40;;;;;;;15.10;12.05;;;;;;;;;;1891576;76;21116;-47
2021/09/13 13:53:08;;;;;;;8.63;4.80;;;;;;;;;;1891435;76;21461;-50
2021/09/13 13:55:37;;;;;;;7.17;5.42;;;;;;;;;;1891541;76;21026;-47
2021/09/13 13:58:06;;;;;;;9.88;4.92;;;;;;;;;;1891403;76;21042;-47
2021/09/13 14:00:35;;;;;;;13.93;5.53;;;;;;;;;;1891419;76;21007;-48
2021/09/13 14:03:04;;;;;;;11.05;5.87;;;;;;;;;;1891542;76;21100;-49
2021/09/13 14:05:33;;;;;;;10.40;5.47;;;;;;;;;;1891458;76;21073;-46
2021/09/13 14:08:01;;;;;;;8.95;5.83;;;;;;;;;;1891516;76;21042;-49
2021/09/13 14:10:30;;;;;;;8.15;5.60;;;;;;;;;;1876003;75;21063;-47
2021/09/13 14:13:00;;;;;;;10.68;5.05;;;;;;;;;;1872707;75;21039;-47
2021/09/13 14:15:28;;;;;;;10.35;5.67;;;;;;;;;;1872806;76;21039;-49
2021/09/13 14:17:57;;;;;;;10.58;4.97;;;;;;;;;;1872865;77;21035;-49
2021/09/13 14:20:26;;;;;;;8.80;4.62;;;;;;;;;;1872874;77;21093;-48
2021/09/13 14:22:55;;;;;;;12.93;5.33;;;;;;;;;;1872849;77;21055;-50
2021/09/13 14:25:24;;;;;;;8.33;5.35;;;;;;;;;;1872820;76;21047;-51
2021/09/13 14:27:52;;;;;;;14.93;5.60;;;;;;;;;;1872809;77;21026;-50
2021/09/13 14:30:21;;;;;;;6.05;4.85;;;;;;;;;;1872738;76;21019;-47
2021/09/13 14:32:50;;;;;;;8.98;5.45;;;;;;;;;;1872795;76;21031;-47
2021/09/13 14:35:19;;;;;;;11.20;5.50;;;;;;;;;;1872707;77;21039;-50
2021/09/13 14:37:48;;;;;;;10.58;4.87;;;;;;;;;;1872724;76;21038;-48
2021/09/13 14:40:17;;;;;;;8.18;4.92;;;;;;;;;;1872821;77;21031;-46
2021/09/13 14:42:45;;;;;;;6.40;4.50;;;;;;;;;;1872886;77;21033;-50
2021/09/13 14:45:14;;;;;;;7.80;4.83;;;;;;;;;;1872833;77;21117;-48
2021/09/13 14:47:43;;;;;;;6.40;4.17;;;;;;;;;;1872846;77;21043;-49
2021/09/13 14:50:12;;;;;;;10.05;4.85;;;;;;;;;;1872873;77;21015;-50
2021/09/13 14:52:40;;;;;;;8.68;4.62;;;;;;;;;;1872888;77;21031;-49
2021/09/13 14:55:10;;;;;;;6.08;4.62;;;;;;;;;;1872840;76;21055;-50
2021/09/13 14:57:39;;;;;;;9.83;5.12;;;;;;;;;;1872825;76;21086;-49
2021/09/13 15:00:08;;;;;;;11.43;4.62;;;;;;;;;;1872716;75;21035;-50
2021/09/13 15:02:37;;;;;;;9.75;4.95;;;;;;;;;;1872874;77;21031;-49
2021/09/13 15:05:06;;;;;;;7.72;4.35;;;;;;;;;;1872667;77;21103;-47
2021/09/13 15:07:35;;;;;;;8.98;4.30;;;;;;;;;;1872625;76;21051;-47